Delanson, New York
Current Conditions -  °F | °C
As of 9:35 PM on Sunday 25 Jan 2015 (Local Time) from KNY0 Reporting Station
Clear Clear  
Wind Chill: -2°   Ceiling: Unl
Heat Index:   Visibility: 10mi
Dew Point: -4°   Wind: 6mph
Humidity: 58%   Direction: 260°W
Pressure: 29.99"   Gusts: NA
Location:  42.75°N, 74.19°W
Report Text: KNY0 260235Z AUTO 26005KT 10SM CLR M13/M20 A2999 RMK AO2 T11341200
Loading
Personal Weather Stations






























Interactive Weather Map New forecast layout! Learn more

10-Day Weather Forecast

Advertisements
Track Severe Weather on mobile